createdAt,value
2023-03-06T00:00:35.602Z,993.61
2023-03-06T00:06:19.764Z,993.6
2023-03-06T00:12:03.445Z,993.54
2023-03-06T00:17:47.595Z,993.4
2023-03-06T00:23:31.353Z,993.23
2023-03-06T00:29:15.169Z,993.24
2023-03-06T00:34:59.017Z,993.19
2023-03-06T00:40:43.916Z,993.09
2023-03-06T00:46:27.572Z,993.04
2023-03-06T00:52:11.422Z,993.01
2023-03-06T00:57:55.155Z,992.96
2023-03-06T01:03:38.826Z,992.89
2023-03-06T01:09:22.570Z,992.93
2023-03-06T01:15:07.604Z,992.91
2023-03-06T01:20:51.361Z,992.93
2023-03-06T01:26:35.296Z,992.97
2023-03-06T01:32:19.175Z,992.91
2023-03-06T01:38:02.937Z,992.9
2023-03-06T01:43:47.105Z,992.81
2023-03-06T01:49:32.711Z,992.71
2023-03-06T01:55:18.191Z,992.66
2023-03-06T02:01:02.009Z,992.61
2023-03-06T02:06:46.058Z,992.56
2023-03-06T02:12:29.792Z,992.62
2023-03-06T02:18:13.818Z,992.58
2023-03-06T02:24:09.290Z,992.54
2023-03-06T02:29:53.866Z,992.53
2023-03-06T02:35:39.819Z,992.49
2023-03-06T02:41:23.612Z,992.4
2023-03-06T02:47:07.312Z,992.35
2023-03-06T02:52:51.240Z,992.29
2023-03-06T02:58:35.036Z,992.2
2023-03-06T03:04:18.864Z,992.15
2023-03-06T03:10:02.550Z,992.04
2023-03-06T03:15:46.286Z,991.96
2023-03-06T03:21:30.191Z,991.89
2023-03-06T03:27:14.268Z,991.92
2023-03-06T03:32:57.945Z,991.86
2023-03-06T03:38:41.610Z,991.74
2023-03-06T03:44:25.262Z,991.7
2023-03-06T03:50:10.578Z,991.61
2023-03-06T03:55:54.236Z,991.53
2023-03-06T04:01:40.503Z,991.5
2023-03-06T04:07:24.207Z,991.5
2023-03-06T04:13:10.745Z,991.49
2023-03-06T04:18:54.595Z,991.5
2023-03-06T04:24:38.196Z,991.48
2023-03-06T04:30:21.993Z,991.44
2023-03-06T04:36:06.195Z,991.32
2023-03-06T04:41:50.021Z,991.28
2023-03-06T04:47:34.279Z,991.23
2023-03-06T04:53:18.063Z,991.25
2023-03-06T04:59:02.689Z,991.25
2023-03-06T05:04:46.397Z,991.27
2023-03-06T05:10:30.200Z,991.25
2023-03-06T05:16:14.263Z,991.22
2023-03-06T05:21:58.116Z,991.14
2023-03-06T05:27:42.040Z,991.16
2023-03-06T05:33:25.801Z,991.07
2023-03-06T05:39:09.730Z,991.09
2023-03-06T05:44:53.457Z,990.99
2023-03-06T05:50:37.182Z,990.96
2023-03-06T05:56:21.002Z,990.96
2023-03-06T06:02:05.131Z,990.98
2023-03-06T06:07:49.070Z,990.96
2023-03-06T06:13:32.896Z,990.96
2023-03-06T06:19:17.555Z,991.05
2023-03-06T06:25:01.159Z,991.05
2023-03-06T06:30:45.128Z,991.04
2023-03-06T06:36:29.279Z,990.99
2023-03-06T06:42:39.147Z,990.97
2023-03-06T06:48:18.830Z,991.02
2023-03-06T06:54:02.655Z,990.98
2023-03-06T06:59:46.371Z,990.98
2023-03-06T07:05:30.023Z,991.01
2023-03-06T07:11:15.678Z,991.05
2023-03-06T07:16:59.506Z,991.1
2023-03-06T07:22:51.157Z,991.15
2023-03-06T07:28:51.803Z,991.17
2023-03-06T07:34:35.068Z,991.2
2023-03-06T07:40:19.421Z,991.14
2023-03-06T07:46:03.141Z,991.14
2023-03-06T07:51:46.938Z,991.1
2023-03-06T07:57:30.857Z,991.1
2023-03-06T08:03:15.006Z,991.09
2023-03-06T08:08:59.422Z,991.14
2023-03-06T08:14:43.364Z,991.14
2023-03-06T08:20:27.220Z,991.16
2023-03-06T08:26:11.703Z,991.19
2023-03-06T08:31:55.459Z,991.21
2023-03-06T08:37:39.283Z,991.32
2023-03-06T08:43:22.995Z,991.37
2023-03-06T08:49:06.735Z,991.41
2023-03-06T08:54:50.467Z,991.4
2023-03-06T09:00:34.365Z,991.38
2023-03-06T09:06:18.323Z,991.41
2023-03-06T09:12:02.134Z,991.46
2023-03-06T09:17:45.962Z,991.44
2023-03-06T09:23:29.973Z,991.44
2023-03-06T09:29:14.259Z,991.51
2023-03-06T09:34:58.070Z,991.41
2023-03-06T09:40:45.970Z,991.43
2023-03-06T09:46:36.778Z,991.38
2023-03-06T09:52:31.647Z,991.3
2023-03-06T09:58:17.806Z,991.37
2023-03-06T10:04:05.760Z,991.37
2023-03-06T10:09:52.659Z,991.32
2023-03-06T10:15:37.877Z,991.32
2023-03-06T10:21:28.005Z,991.27
2023-03-06T10:27:16.507Z,991.25
2023-03-06T10:33:04.022Z,991.19
2023-03-06T10:38:48.990Z,991.25
2023-03-06T10:44:32.612Z,991.31
2023-03-06T10:50:23.892Z,991.32
2023-03-06T10:56:07.585Z,991.24
2023-03-06T11:01:52.543Z,991.28
2023-03-06T11:07:36.922Z,991.27
2023-03-06T11:13:24.611Z,991.28
2023-03-06T11:19:13.460Z,991.13
2023-03-06T11:24:57.542Z,991.04
2023-03-06T11:30:43.675Z,991.01
2023-03-06T11:36:30.928Z,990.91
2023-03-06T11:42:18.000Z,990.89
2023-03-06T11:48:07.658Z,990.7
2023-03-06T11:53:51.419Z,990.6
2023-03-06T11:59:47.119Z,990.6
2023-03-06T12:05:34.075Z,990.5
2023-03-06T12:11:20.981Z,990.48
2023-03-06T12:17:10.148Z,990.42
2023-03-06T12:23:14.382Z,990.44
2023-03-06T12:29:06.352Z,990.41
2023-03-06T12:34:57.079Z,990.33
2023-03-06T12:40:49.438Z,990.28
2023-03-06T12:46:36.538Z,990.21
2023-03-06T12:52:30.146Z,990.07
2023-03-06T12:58:25.889Z,990.13
2023-03-06T13:04:20.903Z,990.12
2023-03-06T13:10:20.689Z,989.99
2023-03-06T13:16:22.834Z,989.99
2023-03-06T13:22:11.654Z,989.99
2023-03-06T13:28:04.501Z,989.95
2023-03-06T13:34:01.422Z,989.88
2023-03-06T13:39:56.010Z,989.85
2023-03-06T13:45:41.870Z,989.83
2023-03-06T13:51:28.850Z,989.83
2023-03-06T13:57:33.795Z,989.84
2023-03-06T14:03:29.014Z,989.72
2023-03-06T14:09:17.686Z,989.67
2023-03-06T14:15:04.473Z,989.59
2023-03-06T14:20:49.930Z,989.47
2023-03-06T14:26:35.104Z,989.4
2023-03-06T14:32:22.219Z,989.4
2023-03-06T14:38:06.509Z,989.21
2023-03-06T14:43:51.243Z,989.15
2023-03-06T14:49:35.257Z,989.14
2023-03-06T14:55:20.700Z,989.09
2023-03-06T15:01:06.574Z,988.94
2023-03-06T15:06:50.483Z,988.94
2023-03-06T15:12:38.954Z,988.93
2023-03-06T15:18:32.632Z,988.82
2023-03-06T15:24:27.988Z,988.83
2023-03-06T15:30:22.318Z,988.87
2023-03-06T15:36:07.776Z,988.77
2023-03-06T15:41:56.197Z,988.74
2023-03-06T15:47:39.898Z,988.66
2023-03-06T15:53:23.730Z,988.64
2023-03-06T15:59:08.316Z,988.66
2023-03-06T16:04:52.390Z,988.6
2023-03-06T16:10:39.984Z,988.51
2023-03-06T16:16:28.641Z,988.46
2023-03-06T16:22:12.555Z,988.45
2023-03-06T16:27:58.212Z,988.45
2023-03-06T16:33:41.796Z,988.44
2023-03-06T16:39:25.477Z,988.47
2023-03-06T16:45:10.187Z,988.38
2023-03-06T16:50:53.923Z,988.23
2023-03-06T16:56:37.776Z,988.15
2023-03-06T17:02:21.654Z,988.1
2023-03-06T17:08:05.656Z,988.13
2023-03-06T17:13:50.780Z,988.06
2023-03-06T17:19:34.453Z,988.08
2023-03-06T17:25:18.122Z,987.99
2023-03-06T17:31:02.054Z,988.03
2023-03-06T17:36:46.012Z,988.04
2023-03-06T17:42:29.599Z,988.09
2023-03-06T17:48:13.117Z,988.05
2023-03-06T17:53:56.835Z,988.07
2023-03-06T17:59:40.527Z,988.07
2023-03-06T18:05:24.468Z,988.07
2023-03-06T18:11:09.202Z,988.08
2023-03-06T18:16:52.968Z,988.08
2023-03-06T18:22:36.721Z,987.97
2023-03-06T18:28:20.343Z,988.03
2023-03-06T18:34:06.600Z,988.03
2023-03-06T18:39:50.913Z,988.05
2023-03-06T18:45:49.358Z,987.97
2023-03-06T18:51:33.320Z,987.83
2023-03-06T18:57:17.111Z,987.88
2023-03-06T19:03:00.804Z,987.81
2023-03-06T19:08:45.085Z,987.78
2023-03-06T19:14:28.780Z,987.79
2023-03-06T19:20:13.189Z,987.66
2023-03-06T19:26:00.618Z,987.62
2023-03-06T19:31:44.874Z,987.59
2023-03-06T19:37:28.662Z,987.55
2023-03-06T19:43:12.230Z,987.53
2023-03-06T19:48:59.406Z,987.49
2023-03-06T19:54:43.317Z,987.45
2023-03-06T20:00:27.212Z,987.41
2023-03-06T20:06:13.319Z,987.37
2023-03-06T20:11:57.184Z,987.29
2023-03-06T20:17:41.285Z,987.27
2023-03-06T20:23:26.630Z,987.21
2023-03-06T20:29:10.802Z,987.19
2023-03-06T20:34:54.448Z,987.2
2023-03-06T20:40:41.692Z,987.14
2023-03-06T20:46:28.593Z,987.1
2023-03-06T20:52:12.348Z,987.1
2023-03-06T20:57:56.060Z,986.99
2023-03-06T21:03:39.711Z,987.02
2023-03-06T21:09:23.353Z,986.98
2023-03-06T21:15:07.803Z,986.88
2023-03-06T21:20:52.396Z,986.86
2023-03-06T21:26:36.131Z,986.79
2023-03-06T21:32:19.940Z,986.68
2023-03-06T21:38:03.820Z,986.61
2023-03-06T21:43:47.904Z,986.5
2023-03-06T21:49:31.644Z,986.49
2023-03-06T21:55:15.089Z,986.37
2023-03-06T22:00:58.815Z,986.47
2023-03-06T22:06:43.644Z,986.39
2023-03-06T22:12:28.521Z,986.33
2023-03-06T22:18:12.192Z,986.4
2023-03-06T22:23:56.471Z,986.34
2023-03-06T22:29:40.123Z,986.3
2023-03-06T22:35:23.872Z,986.22
2023-03-06T22:41:07.883Z,986.19
2023-03-06T22:46:51.567Z,986.2
2023-03-06T22:52:35.172Z,986.19
2023-03-06T22:58:18.953Z,986.08
2023-03-06T23:04:03.865Z,986.1
2023-03-06T23:09:47.781Z,986.03
2023-03-06T23:15:31.824Z,986.08
2023-03-06T23:21:16.679Z,986.04
2023-03-06T23:27:00.680Z,986.01
2023-03-06T23:32:46.748Z,985.97
2023-03-06T23:38:30.706Z,985.87
2023-03-06T23:44:14.395Z,985.89
2023-03-06T23:49:57.961Z,985.87
2023-03-06T23:55:45.551Z,985.92
